createdAt,value
2023-01-26T00:02:03.698Z,41.40
2023-01-26T00:04:31.639Z,38.60
2023-01-26T00:06:59.622Z,41.20
2023-01-26T00:09:27.660Z,37.90
2023-01-26T00:11:55.533Z,39.60
2023-01-26T00:14:23.565Z,39.80
2023-01-26T00:16:51.579Z,38.10
2023-01-26T00:19:19.764Z,39.50
2023-01-26T00:21:47.631Z,39.70
2023-01-26T00:24:15.845Z,38.70
2023-01-26T00:26:43.794Z,38.40
2023-01-26T00:29:11.696Z,38.00
2023-01-26T00:31:39.642Z,39.80
2023-01-26T00:34:07.594Z,39.20
2023-01-26T00:36:37.690Z,38.40
2023-01-26T00:39:05.779Z,39.40
2023-01-26T00:41:54.360Z,39.60
2023-01-26T00:44:22.363Z,39.70
2023-01-26T00:46:50.397Z,38.60
2023-01-26T00:49:18.608Z,39.40
2023-01-26T00:51:46.857Z,38.90
2023-01-26T00:54:15.323Z,39.70
2023-01-26T00:56:43.351Z,40.40
2023-01-26T00:59:11.681Z,41.90
2023-01-26T01:01:39.806Z,40.90
2023-01-26T01:04:07.804Z,38.50
2023-01-26T01:06:35.976Z,40.40
2023-01-26T01:09:04.020Z,39.80
2023-01-26T01:11:32.585Z,39.30
2023-01-26T01:14:00.460Z,38.90
2023-01-26T01:16:28.769Z,39.00
2023-01-26T01:18:58.219Z,38.10
2023-01-26T01:21:26.362Z,41.00
2023-01-26T01:23:54.509Z,38.40
2023-01-26T01:26:22.818Z,38.40
2023-01-26T01:28:54.740Z,39.90
2023-01-26T01:31:23.147Z,41.30
2023-01-26T01:33:52.733Z,42.00
2023-01-26T01:36:21.028Z,38.70
2023-01-26T01:38:49.318Z,40.90
2023-01-26T01:41:21.084Z,39.90
2023-01-26T01:43:49.845Z,39.10
2023-01-26T01:46:29.672Z,40.00
2023-01-26T01:49:05.697Z,40.30
2023-01-26T01:51:35.976Z,39.70
2023-01-26T01:54:11.776Z,40.30
2023-01-26T01:56:43.677Z,40.50
2023-01-26T01:59:13.033Z,41.30
2023-01-26T02:01:42.139Z,40.90
2023-01-26T02:04:11.473Z,38.90
2023-01-26T02:06:49.058Z,41.70
2023-01-26T02:09:39.583Z,40.60
2023-01-26T02:12:11.738Z,39.80
2023-01-26T02:14:40.922Z,39.60
2023-01-26T02:17:10.088Z,40.50
2023-01-26T02:20:13.169Z,39.80
2023-01-26T02:22:50.141Z,39.20
2023-01-26T02:25:57.398Z,39.50
2023-01-26T02:28:27.508Z,36.50
2023-01-26T02:30:57.391Z,36.30
2023-01-26T02:36:25.200Z,35.00
2023-01-26T02:39:11.973Z,28.60
2023-01-26T02:41:59.670Z,36.10
2023-01-26T02:44:30.182Z,35.00
2023-01-26T02:46:58.159Z,34.10
2023-01-26T02:49:44.932Z,35.60
2023-01-26T02:52:16.395Z,34.60
2023-01-26T02:55:04.423Z,27.90
2023-01-26T02:57:34.455Z,36.20
2023-01-26T03:00:05.113Z,36.00
2023-01-26T03:02:33.095Z,34.90
2023-01-26T03:05:01.434Z,34.30
2023-01-26T03:07:29.472Z,37.00
2023-01-26T03:09:58.952Z,37.60
2023-01-26T03:12:27.133Z,36.60
2023-01-26T03:15:30.837Z,34.70
2023-01-26T03:18:25.781Z,33.30
2023-01-26T03:21:12.413Z,34.30
2023-01-26T03:23:59.055Z,34.90
2023-01-26T03:26:46.232Z,37.50
2023-01-26T03:29:14.526Z,38.20
2023-01-26T03:31:43.250Z,48.40
2023-01-26T03:34:12.041Z,38.40
2023-01-26T03:36:40.380Z,39.50
2023-01-26T03:39:32.588Z,35.30
2023-01-26T03:42:19.655Z,36.50
2023-01-26T03:45:06.183Z,36.30
2023-01-26T03:47:54.881Z,39.80
2023-01-26T03:50:42.295Z,44.70
2023-01-26T03:53:33.171Z,37.50
2023-01-26T03:56:20.571Z,36.70
2023-01-26T03:58:57.219Z,35.00
2023-01-26T04:02:42.794Z,35.70
2023-01-26T04:05:30.841Z,34.70
2023-01-26T04:08:43.587Z,34.80
2023-01-26T04:11:11.916Z,35.10
2023-01-26T04:13:58.394Z,36.00
2023-01-26T04:16:49.708Z,37.60
2023-01-26T04:19:36.737Z,36.50
2023-01-26T04:22:04.899Z,42.10
2023-01-26T04:24:35.204Z,41.00
2023-01-26T04:27:03.079Z,37.70
2023-01-26T04:29:36.044Z,37.00
2023-01-26T04:34:36.437Z,35.90
2023-01-26T04:37:11.540Z,36.90
2023-01-26T04:39:48.459Z,36.00
2023-01-26T04:42:16.669Z,35.40
2023-01-26T04:44:45.565Z,37.00
2023-01-26T04:47:13.366Z,35.80
2023-01-26T04:49:41.205Z,36.20
2023-01-26T04:52:09.101Z,37.00
2023-01-26T04:54:37.382Z,36.10
2023-01-26T04:57:05.557Z,36.90
2023-01-26T04:59:35.169Z,39.00
2023-01-26T05:02:03.773Z,36.30
2023-01-26T05:05:08.705Z,38.00
2023-01-26T05:07:36.955Z,37.80
2023-01-26T05:10:05.802Z,37.80
2023-01-26T05:12:52.727Z,39.20
2023-01-26T05:15:29.651Z,38.30
2023-01-26T05:18:24.071Z,38.70
2023-01-26T05:21:00.723Z,38.00
2023-01-26T05:23:33.475Z,37.80
2023-01-26T05:26:34.044Z,38.20
2023-01-26T05:29:07.039Z,37.80
2023-01-26T05:31:35.262Z,39.00
2023-01-26T05:34:03.248Z,40.30
2023-01-26T05:36:32.126Z,39.00
2023-01-26T05:39:00.114Z,38.80
2023-01-26T05:41:28.716Z,40.70
2023-01-26T05:44:13.541Z,36.60
2023-01-26T05:46:55.594Z,38.30
2023-01-26T05:49:23.641Z,39.50
2023-01-26T05:51:52.481Z,38.50
2023-01-26T05:54:20.938Z,40.10
2023-01-26T05:56:49.080Z,40.30
2023-01-26T05:59:19.047Z,40.60
2023-01-26T06:01:47.690Z,40.00
2023-01-26T06:04:17.049Z,41.40
2023-01-26T06:06:56.959Z,40.20
2023-01-26T06:09:29.433Z,36.90
2023-01-26T06:12:12.710Z,38.60
2023-01-26T06:14:51.840Z,40.20
2023-01-26T06:17:20.944Z,39.20
2023-01-26T06:19:54.295Z,39.30
2023-01-26T06:22:22.356Z,40.40
2023-01-26T06:24:51.464Z,39.80
2023-01-26T06:27:19.326Z,38.60
2023-01-26T06:29:49.671Z,38.70
2023-01-26T06:32:18.228Z,41.50
2023-01-26T06:34:49.184Z,40.50
2023-01-26T06:37:17.766Z,39.80
2023-01-26T06:39:45.608Z,40.50
2023-01-26T06:42:13.525Z,42.30
2023-01-26T06:44:41.487Z,43.00
2023-01-26T06:47:09.380Z,42.00
2023-01-26T06:49:37.712Z,41.80
2023-01-26T06:52:31.790Z,44.80
2023-01-26T06:55:05.152Z,56.50
2023-01-26T06:57:47.605Z,46.60
2023-01-26T07:00:34.255Z,48.10
2023-01-26T07:03:14.404Z,48.40
2023-01-26T07:05:42.228Z,47.40
2023-01-26T07:08:09.983Z,46.70
2023-01-26T07:10:38.735Z,49.40
2023-01-26T07:13:07.124Z,53.50
2023-01-26T07:15:34.970Z,45.10
2023-01-26T07:18:02.892Z,46.70
2023-01-26T07:20:30.914Z,42.00
2023-01-26T07:23:01.757Z,44.00
2023-01-26T07:25:30.322Z,45.70
2023-01-26T07:27:59.534Z,43.80
2023-01-26T07:30:27.520Z,40.80
2023-01-26T07:32:55.250Z,37.30
2023-01-26T07:35:23.081Z,38.80
2023-01-26T07:37:50.845Z,34.80
2023-01-26T07:40:18.776Z,35.10
2023-01-26T07:42:47.119Z,32.30
2023-01-26T07:45:44.880Z,31.70
2023-01-26T07:48:12.838Z,31.90
2023-01-26T07:50:40.978Z,30.50
2023-01-26T07:53:09.479Z,31.60
2023-01-26T07:55:37.251Z,28.30
2023-01-26T07:58:05.075Z,27.60
2023-01-26T08:00:32.899Z,26.70
2023-01-26T08:03:01.062Z,26.20
2023-01-26T08:05:29.366Z,24.60
2023-01-26T08:07:59.081Z,22.30
2023-01-26T08:10:31.643Z,21.30
2023-01-26T08:13:00.732Z,21.90
2023-01-26T08:15:29.208Z,21.40
2023-01-26T08:17:56.966Z,20.00
2023-01-26T08:20:24.719Z,20.20
2023-01-26T08:22:53.703Z,19.50
2023-01-26T08:25:21.575Z,19.00
2023-01-26T08:27:49.664Z,19.40
2023-01-26T08:30:17.852Z,19.70
2023-01-26T08:32:45.622Z,20.00
2023-01-26T08:35:13.558Z,18.60
2023-01-26T08:37:41.476Z,20.00
2023-01-26T08:40:10.845Z,19.70
2023-01-26T08:42:38.918Z,19.50
2023-01-26T08:45:07.243Z,19.00
2023-01-26T08:47:35.252Z,16.90
2023-01-26T08:50:03.854Z,17.60
2023-01-26T08:52:31.891Z,20.60
2023-01-26T08:55:00.926Z,16.40
2023-01-26T08:57:28.766Z,15.00
2023-01-26T08:59:56.599Z,16.40
2023-01-26T09:02:24.551Z,15.40
2023-01-26T09:04:52.706Z,15.60
2023-01-26T09:07:20.828Z,16.20
2023-01-26T09:09:53.263Z,14.70
2023-01-26T09:12:24.927Z,15.30
2023-01-26T09:14:56.613Z,15.70
2023-01-26T09:17:27.501Z,15.00
2023-01-26T09:19:58.859Z,12.80
2023-01-26T09:22:30.821Z,16.20
2023-01-26T09:27:38.508Z,14.10
2023-01-26T09:30:12.061Z,15.70
2023-01-26T09:32:43.461Z,15.00
2023-01-26T09:35:15.257Z,15.90
2023-01-26T09:37:46.314Z,16.50
2023-01-26T09:40:26.430Z,16.30
2023-01-26T09:43:21.196Z,15.10
2023-01-26T09:46:19.903Z,15.30
2023-01-26T09:49:07.347Z,15.10
2023-01-26T09:51:42.484Z,16.50
2023-01-26T09:54:29.470Z,15.10
2023-01-26T09:57:10.523Z,16.50
2023-01-26T09:59:59.932Z,16.20
2023-01-26T10:03:03.925Z,14.80
2023-01-26T10:05:56.824Z,14.40
2023-01-26T10:08:44.164Z,14.50
2023-01-26T10:11:24.744Z,13.30
2023-01-26T10:13:57.765Z,15.00
2023-01-26T10:16:26.292Z,14.30
2023-01-26T10:19:02.687Z,14.20
2023-01-26T10:21:36.776Z,15.20
2023-01-26T10:24:05.976Z,13.90
2023-01-26T10:26:34.113Z,12.80
2023-01-26T10:29:03.469Z,13.90
2023-01-26T10:31:33.490Z,13.90
2023-01-26T10:34:11.786Z,13.90
2023-01-26T10:36:41.819Z,13.70
2023-01-26T10:39:14.614Z,13.70
2023-01-26T10:41:57.054Z,14.30
2023-01-26T10:44:45.174Z,14.30
2023-01-26T10:47:17.343Z,14.60
2023-01-26T10:49:45.870Z,13.80
2023-01-26T10:52:28.356Z,14.10
2023-01-26T10:55:19.946Z,15.30
2023-01-26T10:57:48.123Z,14.00
2023-01-26T11:04:38.014Z,13.40
2023-01-26T11:07:40.195Z,14.00
2023-01-26T11:10:38.476Z,13.70
2023-01-26T11:13:12.320Z,13.90
2023-01-26T11:15:47.960Z,14.00
2023-01-26T11:18:53.960Z,14.20
2023-01-26T11:21:36.042Z,14.00
2023-01-26T11:24:09.227Z,13.80
2023-01-26T11:26:52.321Z,13.80
2023-01-26T11:29:35.162Z,13.80
2023-01-26T11:32:24.779Z,14.00
2023-01-26T11:34:55.439Z,14.50
2023-01-26T11:37:36.504Z,14.30
2023-01-26T11:40:30.586Z,13.90
2023-01-26T11:43:42.915Z,17.30
2023-01-26T11:46:40.489Z,17.10
2023-01-26T11:49:46.152Z,16.50
2023-01-26T11:52:23.113Z,17.00
2023-01-26T11:55:18.827Z,15.80
2023-01-26T11:57:59.095Z,16.50
2023-01-26T12:00:40.232Z,16.50
2023-01-26T12:03:27.986Z,17.70
2023-01-26T12:06:00.453Z,16.30
2023-01-26T12:08:39.545Z,15.70
2023-01-26T12:11:33.844Z,16.40
2023-01-26T12:14:08.487Z,18.40
2023-01-26T12:16:39.359Z,15.00
2023-01-26T12:19:41.942Z,15.80
2023-01-26T12:25:28.937Z,16.80
2023-01-26T12:27:58.363Z,15.60
2023-01-26T12:30:31.082Z,16.50
2023-01-26T12:32:59.588Z,16.60
2023-01-26T12:35:37.988Z,15.70
2023-01-26T12:38:18.620Z,16.80
2023-01-26T12:41:19.168Z,15.90
2023-01-26T12:44:32.142Z,15.10
2023-01-26T12:47:12.826Z,15.30
2023-01-26T12:49:50.576Z,15.40
2023-01-26T12:52:31.855Z,16.70
2023-01-26T12:55:18.482Z,15.50
2023-01-26T12:57:55.273Z,15.90
2023-01-26T13:00:30.772Z,16.00
2023-01-26T13:03:17.079Z,18.10
2023-01-26T13:06:14.214Z,15.40
2023-01-26T13:08:54.397Z,16.20
2023-01-26T13:11:44.091Z,16.00
2023-01-26T13:14:33.550Z,15.40
2023-01-26T13:17:16.839Z,16.90
2023-01-26T13:19:44.776Z,21.90
2023-01-26T13:22:18.764Z,17.50
2023-01-26T13:24:56.173Z,18.30
2023-01-26T13:27:41.012Z,18.90
2023-01-26T13:30:24.526Z,19.10
2023-01-26T13:32:54.228Z,20.20
2023-01-26T13:35:26.769Z,23.20
2023-01-26T13:38:29.549Z,24.80
2023-01-26T13:40:59.089Z,17.90
2023-01-26T13:43:29.992Z,31.10
2023-01-26T13:46:19.916Z,17.10
2023-01-26T13:48:52.606Z,33.10
2023-01-26T13:51:24.989Z,15.40
2023-01-26T13:54:13.577Z,21.70
2023-01-26T13:57:07.260Z,17.20
2023-01-26T13:59:48.846Z,26.90
2023-01-26T14:02:49.742Z,19.50
2023-01-26T14:05:22.332Z,20.00
2023-01-26T14:07:50.215Z,21.10
2023-01-26T14:10:20.198Z,20.90
2023-01-26T14:12:56.627Z,22.10
2023-01-26T14:15:30.842Z,25.20
2023-01-26T14:18:04.620Z,30.30
2023-01-26T14:20:39.592Z,21.60
2023-01-26T14:23:07.327Z,22.90
2023-01-26T14:25:35.309Z,24.80
2023-01-26T14:28:04.025Z,28.60
2023-01-26T14:30:34.325Z,25.50
2023-01-26T14:33:16.521Z,26.00
2023-01-26T14:38:22.780Z,27.20
2023-01-26T14:40:53.760Z,25.00
2023-01-26T14:43:22.086Z,28.20
2023-01-26T14:46:33.104Z,21.40
2023-01-26T14:49:08.137Z,24.70
2023-01-26T14:51:37.913Z,25.00
2023-01-26T14:54:26.465Z,32.20
2023-01-26T14:56:54.494Z,26.60
2023-01-26T14:59:41.312Z,30.50
2023-01-26T15:02:22.780Z,33.50
2023-01-26T15:05:03.594Z,35.00
2023-01-26T15:08:05.362Z,35.60
2023-01-26T15:10:53.397Z,23.70
2023-01-26T15:13:29.953Z,30.80
2023-01-26T15:16:11.930Z,31.40
2023-01-26T15:18:39.742Z,28.10
2023-01-26T15:21:39.908Z,36.80
2023-01-26T15:24:15.032Z,30.80
2023-01-26T15:26:44.217Z,30.90
2023-01-26T15:29:30.685Z,25.80
2023-01-26T15:31:59.327Z,23.10
2023-01-26T15:34:32.437Z,24.80
2023-01-26T15:37:01.627Z,23.10
2023-01-26T15:39:30.254Z,25.20
2023-01-26T15:42:22.272Z,24.80
2023-01-26T15:44:50.468Z,25.50
2023-01-26T15:47:18.225Z,23.80
2023-01-26T15:49:46.376Z,25.00
2023-01-26T15:52:41.987Z,27.20
2023-01-26T15:55:26.641Z,30.40
2023-01-26T15:57:54.682Z,30.00
2023-01-26T16:00:23.675Z,25.10
2023-01-26T16:02:51.567Z,24.50
2023-01-26T16:05:23.177Z,25.70
2023-01-26T16:07:52.575Z,20.90
2023-01-26T16:10:20.827Z,25.90
2023-01-26T16:12:50.390Z,25.00
2023-01-26T16:15:27.523Z,27.30
2023-01-26T16:17:55.391Z,24.80
2023-01-26T16:20:23.204Z,21.50
2023-01-26T16:22:51.040Z,22.50
2023-01-26T16:25:29.337Z,28.40
2023-01-26T16:27:58.581Z,26.60
2023-01-26T16:30:26.919Z,27.30
2023-01-26T16:32:54.844Z,28.50
2023-01-26T16:35:24.221Z,31.20
2023-01-26T16:37:52.247Z,24.90
2023-01-26T16:40:20.186Z,25.90
2023-01-26T16:42:51.233Z,29.90
2023-01-26T16:45:22.918Z,27.50
2023-01-26T16:47:54.885Z,23.00
2023-01-26T16:50:24.062Z,30.80
2023-01-26T16:52:52.516Z,28.30
2023-01-26T16:55:20.536Z,27.50
2023-01-26T16:57:49.950Z,25.70
2023-01-26T17:00:20.407Z,26.90
2023-01-26T17:02:51.515Z,30.70
2023-01-26T17:05:22.245Z,21.40
2023-01-26T17:07:51.074Z,23.80
2023-01-26T17:10:22.580Z,24.90
2023-01-26T17:12:50.655Z,24.40
2023-01-26T17:15:18.649Z,25.50
2023-01-26T17:17:49.311Z,23.30
2023-01-26T17:20:19.640Z,27.10
2023-01-26T17:22:48.782Z,24.40
2023-01-26T17:25:18.275Z,30.20
2023-01-26T17:27:48.213Z,23.20
2023-01-26T17:30:17.726Z,32.20
2023-01-26T17:32:45.753Z,32.30
2023-01-26T17:35:14.097Z,22.40
2023-01-26T17:37:42.145Z,28.20
2023-01-26T17:40:11.058Z,18.80
2023-01-26T17:42:39.159Z,30.30
2023-01-26T17:45:09.941Z,28.00
2023-01-26T17:47:38.805Z,24.60
2023-01-26T17:50:07.146Z,24.80
2023-01-26T17:52:42.081Z,31.40
2023-01-26T17:55:13.000Z,19.20
2023-01-26T17:57:41.086Z,18.30
2023-01-26T18:00:12.101Z,20.10
2023-01-26T18:02:39.908Z,16.20
2023-01-26T18:05:08.923Z,15.70
2023-01-26T18:07:36.854Z,21.60
2023-01-26T18:10:05.153Z,17.30
2023-01-26T18:12:33.298Z,15.40
2023-01-26T18:15:01.551Z,15.70
2023-01-26T18:17:29.323Z,15.50
2023-01-26T18:19:57.071Z,17.10
2023-01-26T18:22:24.901Z,15.30
2023-01-26T18:24:52.774Z,15.90
2023-01-26T18:27:20.629Z,19.30
2023-01-26T18:29:48.515Z,16.30
2023-01-26T18:32:16.424Z,16.80
2023-01-26T18:34:44.385Z,15.20
2023-01-26T18:37:13.143Z,15.20
2023-01-26T18:39:40.967Z,16.00
2023-01-26T18:42:08.793Z,15.30
2023-01-26T18:44:37.430Z,16.20
2023-01-26T18:47:05.358Z,16.60
2023-01-26T18:49:33.103Z,17.00
2023-01-26T18:52:10.225Z,16.00
2023-01-26T18:54:44.658Z,21.00
2023-01-26T18:57:13.101Z,21.30
2023-01-26T18:59:40.856Z,22.70
2023-01-26T19:04:37.419Z,17.20
2023-01-26T19:07:05.461Z,18.50
2023-01-26T19:09:35.110Z,15.60
2023-01-26T19:12:04.439Z,17.70
2023-01-26T19:14:33.000Z,16.90
2023-01-26T19:17:01.301Z,16.70
2023-01-26T19:19:31.102Z,18.30
2023-01-26T19:21:59.011Z,23.70
2023-01-26T19:24:26.896Z,26.80
2023-01-26T19:26:54.871Z,20.20
2023-01-26T19:29:22.659Z,19.50
2023-01-26T19:31:50.744Z,17.00
2023-01-26T19:34:18.626Z,17.70
2023-01-26T19:36:46.980Z,21.00
2023-01-26T19:39:14.985Z,21.10
2023-01-26T19:41:44.180Z,18.80
2023-01-26T19:44:12.012Z,20.20
2023-01-26T19:46:39.942Z,19.10
2023-01-26T19:49:11.689Z,17.10
2023-01-26T19:51:39.652Z,17.10
2023-01-26T19:54:08.620Z,16.60
2023-01-26T19:56:37.328Z,16.00
2023-01-26T19:59:07.998Z,15.60
2023-01-26T20:01:36.497Z,15.70
2023-01-26T20:04:07.646Z,17.10
2023-01-26T20:06:36.959Z,16.80
2023-01-26T20:09:06.585Z,16.50
2023-01-26T20:11:34.895Z,16.60
2023-01-26T20:14:06.173Z,16.70
2023-01-26T20:16:34.491Z,17.80
2023-01-26T20:19:03.742Z,19.10
2023-01-26T20:21:32.370Z,18.80
2023-01-26T20:24:05.571Z,19.40
2023-01-26T20:26:34.908Z,19.20
2023-01-26T20:29:04.070Z,18.10
2023-01-26T20:31:33.199Z,16.80
2023-01-26T20:34:02.102Z,17.00
2023-01-26T20:36:31.616Z,18.40
2023-01-26T20:39:00.207Z,18.40
2023-01-26T20:41:30.072Z,18.60
2023-01-26T20:44:01.858Z,17.80
2023-01-26T20:46:40.615Z,17.80
2023-01-26T20:49:12.694Z,17.90
2023-01-26T20:54:16.912Z,16.80
2023-01-26T20:56:49.172Z,18.50
2023-01-26T20:59:18.932Z,20.10
2023-01-26T21:01:46.888Z,19.90
2023-01-26T21:04:14.705Z,20.10
2023-01-26T21:06:42.540Z,19.90
2023-01-26T21:09:12.760Z,19.90
2023-01-26T21:11:40.950Z,19.60
2023-01-26T21:14:12.204Z,20.10
2023-01-26T21:16:40.825Z,15.50
2023-01-26T21:19:08.745Z,23.40
2023-01-26T21:21:36.615Z,24.60
2023-01-26T21:24:04.701Z,25.30
2023-01-26T21:26:32.907Z,22.90
2023-01-26T21:29:01.090Z,20.80
2023-01-26T21:31:31.724Z,19.60
2023-01-26T21:34:00.910Z,20.00
2023-01-26T21:36:31.036Z,20.20
2023-01-26T21:39:00.412Z,22.80
2023-01-26T21:41:51.908Z,19.80
2023-01-26T21:44:27.929Z,21.70
2023-01-26T21:46:59.315Z,21.40
2023-01-26T21:49:30.815Z,22.50
2023-01-26T21:52:17.038Z,22.70
2023-01-26T21:54:44.962Z,21.30
2023-01-26T21:57:31.560Z,22.10
2023-01-26T21:59:59.462Z,22.10
2023-01-26T22:02:27.306Z,22.00
2023-01-26T22:04:55.376Z,22.90
2023-01-26T22:07:23.184Z,22.50
2023-01-26T22:09:50.955Z,23.70
2023-01-26T22:12:18.958Z,23.90
2023-01-26T22:14:46.850Z,20.70
2023-01-26T22:17:14.608Z,21.40
2023-01-26T22:19:42.412Z,28.20
2023-01-26T22:22:10.231Z,26.80
2023-01-26T22:24:38.742Z,23.40
2023-01-26T22:27:08.328Z,27.60
2023-01-26T22:29:36.278Z,25.80
2023-01-26T22:32:04.472Z,23.80
2023-01-26T22:34:32.584Z,22.30
2023-01-26T22:37:00.434Z,22.10
2023-01-26T22:39:28.259Z,21.60
2023-01-26T22:41:56.069Z,20.70
2023-01-26T22:44:23.955Z,26.50
2023-01-26T22:46:52.632Z,36.70
2023-01-26T22:49:20.446Z,32.60
2023-01-26T22:51:48.252Z,28.20
2023-01-26T22:54:16.064Z,24.70
2023-01-26T22:56:44.056Z,31.90
2023-01-26T22:59:12.040Z,33.00
2023-01-26T23:01:39.863Z,27.40
2023-01-26T23:04:08.619Z,23.60
2023-01-26T23:06:36.583Z,21.90
2023-01-26T23:09:04.815Z,25.70
2023-01-26T23:11:32.831Z,30.50
2023-01-26T23:14:00.904Z,28.20
2023-01-26T23:16:29.322Z,23.70
2023-01-26T23:18:58.918Z,22.80
2023-01-26T23:21:27.991Z,23.00
2023-01-26T23:23:56.059Z,22.80
2023-01-26T23:26:24.825Z,22.90
2023-01-26T23:28:52.584Z,24.90
2023-01-26T23:31:20.971Z,25.10
2023-01-26T23:33:49.874Z,24.80
2023-01-26T23:36:17.764Z,26.80
2023-01-26T23:38:45.998Z,26.50
2023-01-26T23:41:13.913Z,32.50
2023-01-26T23:43:41.730Z,27.60
2023-01-26T23:46:10.524Z,26.80
2023-01-26T23:48:39.340Z,30.50
2023-01-26T23:51:10.778Z,29.60
2023-01-26T23:53:39.144Z,31.10
2023-01-26T23:56:10.833Z,28.40
2023-01-26T23:58:39.065Z,29.30
